sensor_id;sensor_type;location;lat;lon;timestamp;P1;durP1;ratioP1;P2;durP2;ratioP2
35693;SDS011;21812;55.536;37.664;2024-03-29T00:01:20;13.73;;;6.50;;
35693;SDS011;21812;55.536;37.664;2024-03-29T00:03:45;14.40;;;7.38;;
35693;SDS011;21812;55.536;37.664;2024-03-29T00:06:11;10.57;;;6.72;;
35693;SDS011;21812;55.536;37.664;2024-03-29T00:08:37;13.38;;;7.82;;
35693;SDS011;21812;55.536;37.664;2024-03-29T00:11:03;15.25;;;7.93;;
35693;SDS011;21812;55.536;37.664;2024-03-29T00:13:29;19.10;;;7.47;;
35693;SDS011;21812;55.536;37.664;2024-03-29T00:15:54;21.30;;;7.60;;
35693;SDS011;21812;55.536;37.664;2024-03-29T00:18:20;15.75;;;8.00;;
35693;SDS011;21812;55.536;37.664;2024-03-29T00:20:46;12.18;;;6.72;;
35693;SDS011;21812;55.536;37.664;2024-03-29T00:23:11;13.13;;;7.53;;
35693;SDS011;21812;55.536;37.664;2024-03-29T00:25:37;14.13;;;8.05;;
35693;SDS011;21812;55.536;37.664;2024-03-29T00:28:03;12.77;;;7.03;;
35693;SDS011;21812;55.536;37.664;2024-03-29T00:30:29;14.63;;;7.45;;
35693;SDS011;21812;55.536;37.664;2024-03-29T00:32:54;11.25;;;6.95;;
35693;SDS011;21812;55.536;37.664;2024-03-29T00:35:20;15.20;;;7.40;;
35693;SDS011;21812;55.536;37.664;2024-03-29T00:37:48;14.00;;;7.68;;
35693;SDS011;21812;55.536;37.664;2024-03-29T00:40:14;14.73;;;7.68;;
35693;SDS011;21812;55.536;37.664;2024-03-29T00:42:40;16.33;;;7.57;;
35693;SDS011;21812;55.536;37.664;2024-03-29T00:45:06;15.60;;;7.43;;
35693;SDS011;21812;55.536;37.664;2024-03-29T00:47:32;15.13;;;7.68;;
35693;SDS011;21812;55.536;37.664;2024-03-29T00:49:58;13.88;;;7.75;;
35693;SDS011;21812;55.536;37.664;2024-03-29T00:52:24;14.93;;;7.75;;
35693;SDS011;21812;55.536;37.664;2024-03-29T00:54:49;12.20;;;7.43;;
35693;SDS011;21812;55.536;37.664;2024-03-29T00:57:15;17.48;;;8.23;;
35693;SDS011;21812;55.536;37.664;2024-03-29T00:59:42;13.88;;;7.88;;
35693;SDS011;21812;55.536;37.664;2024-03-29T01:02:09;15.57;;;9.07;;
35693;SDS011;21812;55.536;37.664;2024-03-29T01:04:35;17.20;;;8.82;;
35693;SDS011;21812;55.536;37.664;2024-03-29T01:07:01;13.60;;;8.85;;
35693;SDS011;21812;55.536;37.664;2024-03-29T01:09:27;14.85;;;8.40;;
35693;SDS011;21812;55.536;37.664;2024-03-29T01:11:53;19.30;;;9.90;;
35693;SDS011;21812;55.536;37.664;2024-03-29T01:14:19;16.77;;;8.25;;
35693;SDS011;21812;55.536;37.664;2024-03-29T01:16:44;18.08;;;8.68;;
35693;SDS011;21812;55.536;37.664;2024-03-29T01:19:10;14.65;;;8.48;;
35693;SDS011;21812;55.536;37.664;2024-03-29T01:21:36;19.60;;;9.43;;
35693;SDS011;21812;55.536;37.664;2024-03-29T01:24:02;17.85;;;9.18;;
35693;SDS011;21812;55.536;37.664;2024-03-29T01:26:30;19.65;;;8.82;;
35693;SDS011;21812;55.536;37.664;2024-03-29T01:28:56;18.25;;;8.85;;
35693;SDS011;21812;55.536;37.664;2024-03-29T01:31:22;21.10;;;10.15;;
35693;SDS011;21812;55.536;37.664;2024-03-29T01:33:51;18.40;;;8.98;;
35693;SDS011;21812;55.536;37.664;2024-03-29T01:36:17;16.08;;;9.43;;
35693;SDS011;21812;55.536;37.664;2024-03-29T01:38:43;21.05;;;8.80;;
35693;SDS011;21812;55.536;37.664;2024-03-29T01:41:11;14.90;;;8.50;;
35693;SDS011;21812;55.536;37.664;2024-03-29T01:43:38;18.20;;;9.10;;
35693;SDS011;21812;55.536;37.664;2024-03-29T01:46:03;16.27;;;7.60;;
35693;SDS011;21812;55.536;37.664;2024-03-29T01:48:33;14.68;;;8.00;;
35693;SDS011;21812;55.536;37.664;2024-03-29T01:50:59;16.33;;;8.18;;
35693;SDS011;21812;55.536;37.664;2024-03-29T01:53:27;18.40;;;8.13;;
35693;SDS011;21812;55.536;37.664;2024-03-29T01:55:53;17.38;;;8.35;;
35693;SDS011;21812;55.536;37.664;2024-03-29T01:58:20;19.38;;;9.27;;
35693;SDS011;21812;55.536;37.664;2024-03-29T02:00:52;19.48;;;8.57;;
35693;SDS011;21812;55.536;37.664;2024-03-29T02:03:20;14.88;;;8.32;;
35693;SDS011;21812;55.536;37.664;2024-03-29T02:05:47;17.15;;;8.93;;
35693;SDS011;21812;55.536;37.664;2024-03-29T02:08:14;16.25;;;8.13;;
35693;SDS011;21812;55.536;37.664;2024-03-29T02:10:40;13.80;;;8.60;;
35693;SDS011;21812;55.536;37.664;2024-03-29T02:13:07;15.95;;;9.00;;
35693;SDS011;21812;55.536;37.664;2024-03-29T02:15:33;19.92;;;9.57;;
35693;SDS011;21812;55.536;37.664;2024-03-29T02:17:59;20.02;;;9.02;;
35693;SDS011;21812;55.536;37.664;2024-03-29T02:20:25;19.30;;;8.77;;
35693;SDS011;21812;55.536;37.664;2024-03-29T02:22:53;23.80;;;9.18;;
35693;SDS011;21812;55.536;37.664;2024-03-29T02:25:21;15.85;;;8.75;;
35693;SDS011;21812;55.536;37.664;2024-03-29T02:27:47;15.50;;;8.77;;
35693;SDS011;21812;55.536;37.664;2024-03-29T02:30:16;15.70;;;8.65;;
35693;SDS011;21812;55.536;37.664;2024-03-29T02:32:43;17.67;;;9.80;;
35693;SDS011;21812;55.536;37.664;2024-03-29T02:35:09;17.33;;;9.02;;
35693;SDS011;21812;55.536;37.664;2024-03-29T02:37:34;19.25;;;10.30;;
35693;SDS011;21812;55.536;37.664;2024-03-29T02:40:01;22.60;;;10.00;;
35693;SDS011;21812;55.536;37.664;2024-03-29T02:42:29;25.17;;;10.52;;
35693;SDS011;21812;55.536;37.664;2024-03-29T02:44:55;18.73;;;9.93;;
35693;SDS011;21812;55.536;37.664;2024-03-29T02:47:21;14.60;;;8.98;;
35693;SDS011;21812;55.536;37.664;2024-03-29T02:49:47;21.00;;;9.43;;
35693;SDS011;21812;55.536;37.664;2024-03-29T02:52:13;17.48;;;9.23;;
35693;SDS011;21812;55.536;37.664;2024-03-29T02:54:40;12.27;;;7.50;;
35693;SDS011;21812;55.536;37.664;2024-03-29T02:57:06;17.75;;;8.63;;
35693;SDS011;21812;55.536;37.664;2024-03-29T02:59:32;15.25;;;9.20;;
35693;SDS011;21812;55.536;37.664;2024-03-29T03:01:58;22.52;;;8.90;;
35693;SDS011;21812;55.536;37.664;2024-03-29T03:04:23;15.95;;;9.05;;
35693;SDS011;21812;55.536;37.664;2024-03-29T03:06:49;19.70;;;9.60;;
35693;SDS011;21812;55.536;37.664;2024-03-29T03:09:15;18.13;;;8.82;;
35693;SDS011;21812;55.536;37.664;2024-03-29T03:11:59;15.50;;;9.48;;
35693;SDS011;21812;55.536;37.664;2024-03-29T03:14:25;17.73;;;9.50;;
35693;SDS011;21812;55.536;37.664;2024-03-29T03:16:50;16.95;;;8.73;;
35693;SDS011;21812;55.536;37.664;2024-03-29T03:19:16;28.40;;;8.80;;
35693;SDS011;21812;55.536;37.664;2024-03-29T03:21:42;19.35;;;9.82;;
35693;SDS011;21812;55.536;37.664;2024-03-29T03:24:08;17.38;;;9.20;;
35693;SDS011;21812;55.536;37.664;2024-03-29T03:26:34;22.65;;;9.68;;
35693;SDS011;21812;55.536;37.664;2024-03-29T03:29:00;17.90;;;9.27;;
35693;SDS011;21812;55.536;37.664;2024-03-29T03:31:26;19.48;;;9.70;;
35693;SDS011;21812;55.536;37.664;2024-03-29T03:33:52;19.08;;;8.55;;
35693;SDS011;21812;55.536;37.664;2024-03-29T03:36:18;13.77;;;8.98;;
35693;SDS011;21812;55.536;37.664;2024-03-29T03:38:44;14.52;;;8.43;;
35693;SDS011;21812;55.536;37.664;2024-03-29T03:41:09;17.60;;;8.68;;
35693;SDS011;21812;55.536;37.664;2024-03-29T03:43:35;15.82;;;8.90;;
35693;SDS011;21812;55.536;37.664;2024-03-29T03:46:01;15.10;;;7.75;;
35693;SDS011;21812;55.536;37.664;2024-03-29T03:48:27;14.70;;;8.90;;
35693;SDS011;21812;55.536;37.664;2024-03-29T03:50:55;12.93;;;7.45;;
35693;SDS011;21812;55.536;37.664;2024-03-29T03:53:21;15.45;;;8.48;;
35693;SDS011;21812;55.536;37.664;2024-03-29T03:55:47;17.15;;;7.50;;
35693;SDS011;21812;55.536;37.664;2024-03-29T03:58:13;19.92;;;8.85;;
35693;SDS011;21812;55.536;37.664;2024-03-29T04:00:39;16.95;;;7.70;;
35693;SDS011;21812;55.536;37.664;2024-03-29T04:03:04;19.73;;;8.00;;
35693;SDS011;21812;55.536;37.664;2024-03-29T04:05:30;26.83;;;9.25;;
35693;SDS011;21812;55.536;37.664;2024-03-29T04:07:57;16.10;;;9.05;;
35693;SDS011;21812;55.536;37.664;2024-03-29T04:10:23;61.90;;;14.02;;
35693;SDS011;21812;55.536;37.664;2024-03-29T04:12:52;21.50;;;9.68;;
35693;SDS011;21812;55.536;37.664;2024-03-29T04:15:18;15.52;;;8.68;;
35693;SDS011;21812;55.536;37.664;2024-03-29T04:17:44;17.60;;;7.80;;
35693;SDS011;21812;55.536;37.664;2024-03-29T04:20:10;22.17;;;9.07;;
35693;SDS011;21812;55.536;37.664;2024-03-29T04:22:35;11.95;;;7.35;;
35693;SDS011;21812;55.536;37.664;2024-03-29T04:25:01;17.00;;;8.45;;
35693;SDS011;21812;55.536;37.664;2024-03-29T04:27:29;11.50;;;7.20;;
35693;SDS011;21812;55.536;37.664;2024-03-29T04:29:55;16.08;;;7.40;;
35693;SDS011;21812;55.536;37.664;2024-03-29T04:32:21;12.77;;;7.43;;
35693;SDS011;21812;55.536;37.664;2024-03-29T04:34:47;15.30;;;8.23;;
35693;SDS011;21812;55.536;37.664;2024-03-29T04:37:17;18.40;;;8.82;;
35693;SDS011;21812;55.536;37.664;2024-03-29T04:39:43;41.13;;;10.02;;
35693;SDS011;21812;55.536;37.664;2024-03-29T04:42:10;13.57;;;7.78;;
35693;SDS011;21812;55.536;37.664;2024-03-29T04:44:36;11.50;;;6.70;;
35693;SDS011;21812;55.536;37.664;2024-03-29T04:47:02;17.33;;;8.18;;
35693;SDS011;21812;55.536;37.664;2024-03-29T04:49:28;13.32;;;7.20;;
35693;SDS011;21812;55.536;37.664;2024-03-29T04:51:59;17.85;;;8.30;;
35693;SDS011;21812;55.536;37.664;2024-03-29T04:54:25;17.13;;;6.57;;
35693;SDS011;21812;55.536;37.664;2024-03-29T04:56:52;12.93;;;6.72;;
35693;SDS011;21812;55.536;37.664;2024-03-29T04:59:18;12.73;;;8.70;;
35693;SDS011;21812;55.536;37.664;2024-03-29T05:01:48;50.92;;;9.93;;
35693;SDS011;21812;55.536;37.664;2024-03-29T05:04:19;11.75;;;6.80;;
35693;SDS011;21812;55.536;37.664;2024-03-29T05:06:51;18.77;;;9.85;;
35693;SDS011;21812;55.536;37.664;2024-03-29T05:09:21;11.23;;;5.68;;
35693;SDS011;21812;55.536;37.664;2024-03-29T05:11:47;33.25;;;8.48;;
35693;SDS011;21812;55.536;37.664;2024-03-29T05:14:17;12.40;;;5.72;;
35693;SDS011;21812;55.536;37.664;2024-03-29T05:16:47;28.02;;;6.00;;
35693;SDS011;21812;55.536;37.664;2024-03-29T05:19:14;15.02;;;5.90;;
35693;SDS011;21812;55.536;37.664;2024-03-29T05:21:43;18.00;;;6.18;;
35693;SDS011;21812;55.536;37.664;2024-03-29T05:24:09;10.00;;;6.13;;
35693;SDS011;21812;55.536;37.664;2024-03-29T05:26:35;10.77;;;5.75;;
35693;SDS011;21812;55.536;37.664;2024-03-29T05:29:01;10.73;;;5.53;;
35693;SDS011;21812;55.536;37.664;2024-03-29T05:31:29;13.38;;;5.50;;
35693;SDS011;21812;55.536;37.664;2024-03-29T05:33:54;7.60;;;5.25;;
35693;SDS011;21812;55.536;37.664;2024-03-29T05:36:20;13.70;;;5.63;;
35693;SDS011;21812;55.536;37.664;2024-03-29T05:38:46;17.35;;;5.57;;
35693;SDS011;21812;55.536;37.664;2024-03-29T05:41:12;27.60;;;6.18;;
35693;SDS011;21812;55.536;37.664;2024-03-29T05:43:40;10.02;;;5.65;;
35693;SDS011;21812;55.536;37.664;2024-03-29T05:46:06;10.27;;;5.00;;
35693;SDS011;21812;55.536;37.664;2024-03-29T05:48:32;8.35;;;5.30;;
35693;SDS011;21812;55.536;37.664;2024-03-29T05:50:58;10.07;;;6.55;;
35693;SDS011;21812;55.536;37.664;2024-03-29T05:53:24;12.73;;;6.20;;
35693;SDS011;21812;55.536;37.664;2024-03-29T05:55:50;24.15;;;6.78;;
35693;SDS011;21812;55.536;37.664;2024-03-29T05:58:16;27.65;;;7.18;;
35693;SDS011;21812;55.536;37.664;2024-03-29T06:00:46;15.40;;;6.32;;
35693;SDS011;21812;55.536;37.664;2024-03-29T06:03:12;14.70;;;6.50;;
35693;SDS011;21812;55.536;37.664;2024-03-29T06:05:39;14.10;;;5.72;;
35693;SDS011;21812;55.536;37.664;2024-03-29T06:08:05;14.38;;;7.30;;
35693;SDS011;21812;55.536;37.664;2024-03-29T06:10:31;12.35;;;6.15;;
35693;SDS011;21812;55.536;37.664;2024-03-29T06:12:57;14.07;;;6.10;;
35693;SDS011;21812;55.536;37.664;2024-03-29T06:15:32;10.43;;;5.43;;
35693;SDS011;21812;55.536;37.664;2024-03-29T06:18:17;19.60;;;8.80;;
35693;SDS011;21812;55.536;37.664;2024-03-29T06:20:44;12.25;;;6.15;;
35693;SDS011;21812;55.536;37.664;2024-03-29T06:23:10;12.95;;;7.22;;
35693;SDS011;21812;55.536;37.664;2024-03-29T06:25:36;11.93;;;6.93;;
35693;SDS011;21812;55.536;37.664;2024-03-29T06:28:02;18.05;;;7.63;;
35693;SDS011;21812;55.536;37.664;2024-03-29T06:30:28;17.00;;;6.68;;
35693;SDS011;21812;55.536;37.664;2024-03-29T06:32:54;17.92;;;6.65;;
35693;SDS011;21812;55.536;37.664;2024-03-29T06:35:19;14.25;;;6.40;;
35693;SDS011;21812;55.536;37.664;2024-03-29T06:37:47;8.25;;;5.03;;
35693;SDS011;21812;55.536;37.664;2024-03-29T06:40:13;17.23;;;7.78;;
35693;SDS011;21812;55.536;37.664;2024-03-29T06:42:38;15.60;;;5.63;;
35693;SDS011;21812;55.536;37.664;2024-03-29T06:45:04;11.32;;;6.15;;
35693;SDS011;21812;55.536;37.664;2024-03-29T06:47:31;14.57;;;6.30;;
35693;SDS011;21812;55.536;37.664;2024-03-29T06:49:57;11.13;;;5.75;;
35693;SDS011;21812;55.536;37.664;2024-03-29T06:52:23;14.93;;;7.18;;
35693;SDS011;21812;55.536;37.664;2024-03-29T06:54:48;8.75;;;5.40;;
35693;SDS011;21812;55.536;37.664;2024-03-29T06:57:14;11.57;;;6.05;;
35693;SDS011;21812;55.536;37.664;2024-03-29T06:59:42;9.13;;;6.30;;
35693;SDS011;21812;55.536;37.664;2024-03-29T07:02:08;11.80;;;6.00;;
35693;SDS011;21812;55.536;37.664;2024-03-29T07:04:35;14.73;;;6.28;;
35693;SDS011;21812;55.536;37.664;2024-03-29T07:07:01;10.40;;;5.30;;
35693;SDS011;21812;55.536;37.664;2024-03-29T07:09:27;17.25;;;5.85;;
35693;SDS011;21812;55.536;37.664;2024-03-29T07:11:52;13.32;;;5.60;;
35693;SDS011;21812;55.536;37.664;2024-03-29T07:14:20;9.38;;;5.68;;
35693;SDS011;21812;55.536;37.664;2024-03-29T07:16:47;14.35;;;6.55;;
35693;SDS011;21812;55.536;37.664;2024-03-29T07:19:13;12.40;;;5.88;;
35693;SDS011;21812;55.536;37.664;2024-03-29T07:21:42;12.25;;;6.15;;
35693;SDS011;21812;55.536;37.664;2024-03-29T07:24:08;11.07;;;6.85;;
35693;SDS011;21812;55.536;37.664;2024-03-29T07:26:34;15.70;;;7.05;;
35693;SDS011;21812;55.536;37.664;2024-03-29T07:29:00;9.95;;;5.88;;
35693;SDS011;21812;55.536;37.664;2024-03-29T07:31:26;15.73;;;6.50;;
35693;SDS011;21812;55.536;37.664;2024-03-29T07:33:52;17.75;;;7.60;;
35693;SDS011;21812;55.536;37.664;2024-03-29T07:36:17;15.98;;;6.55;;
35693;SDS011;21812;55.536;37.664;2024-03-29T07:38:43;13.23;;;6.03;;
35693;SDS011;21812;55.536;37.664;2024-03-29T07:41:09;10.80;;;6.20;;
35693;SDS011;21812;55.536;37.664;2024-03-29T07:43:51;13.88;;;6.00;;
35693;SDS011;21812;55.536;37.664;2024-03-29T07:46:18;19.60;;;8.05;;
35693;SDS011;21812;55.536;37.664;2024-03-29T07:48:44;12.77;;;6.78;;
35693;SDS011;21812;55.536;37.664;2024-03-29T07:51:10;11.95;;;6.18;;
35693;SDS011;21812;55.536;37.664;2024-03-29T07:53:35;15.13;;;6.40;;
35693;SDS011;21812;55.536;37.664;2024-03-29T07:56:01;14.68;;;7.07;;
35693;SDS011;21812;55.536;37.664;2024-03-29T07:58:27;11.80;;;6.38;;
35693;SDS011;21812;55.536;37.664;2024-03-29T08:00:52;12.30;;;6.93;;
35693;SDS011;21812;55.536;37.664;2024-03-29T08:03:19;14.18;;;6.75;;
35693;SDS011;21812;55.536;37.664;2024-03-29T08:08:43;12.50;;;5.97;;
35693;SDS011;21812;55.536;37.664;2024-03-29T08:11:10;10.70;;;7.53;;
35693;SDS011;21812;55.536;37.664;2024-03-29T08:13:37;11.32;;;6.50;;
35693;SDS011;21812;55.536;37.664;2024-03-29T08:16:05;12.73;;;6.90;;
35693;SDS011;21812;55.536;37.664;2024-03-29T08:18:31;11.23;;;7.75;;
35693;SDS011;21812;55.536;37.664;2024-03-29T08:20:58;12.82;;;7.88;;
35693;SDS011;21812;55.536;37.664;2024-03-29T08:23:27;12.35;;;7.30;;
35693;SDS011;21812;55.536;37.664;2024-03-29T08:25:54;8.93;;;5.90;;
35693;SDS011;21812;55.536;37.664;2024-03-29T08:28:22;12.20;;;6.97;;
35693;SDS011;21812;55.536;37.664;2024-03-29T08:30:58;17.15;;;8.23;;
35693;SDS011;21812;55.536;37.664;2024-03-29T08:33:28;9.48;;;6.50;;
35693;SDS011;21812;55.536;37.664;2024-03-29T08:35:53;17.25;;;7.97;;
35693;SDS011;21812;55.536;37.664;2024-03-29T08:38:19;15.40;;;7.90;;
35693;SDS011;21812;55.536;37.664;2024-03-29T08:40:45;12.60;;;7.05;;
35693;SDS011;21812;55.536;37.664;2024-03-29T08:43:14;14.57;;;8.15;;
35693;SDS011;21812;55.536;37.664;2024-03-29T08:45:46;11.15;;;7.55;;
35693;SDS011;21812;55.536;37.664;2024-03-29T08:48:13;15.43;;;7.32;;
35693;SDS011;21812;55.536;37.664;2024-03-29T08:50:39;11.35;;;6.90;;
35693;SDS011;21812;55.536;37.664;2024-03-29T08:53:05;12.40;;;7.65;;
35693;SDS011;21812;55.536;37.664;2024-03-29T08:55:32;13.70;;;7.72;;
35693;SDS011;21812;55.536;37.664;2024-03-29T08:57:59;14.90;;;8.38;;
35693;SDS011;21812;55.536;37.664;2024-03-29T09:00:29;14.15;;;8.40;;
35693;SDS011;21812;55.536;37.664;2024-03-29T09:02:55;13.63;;;7.80;;
35693;SDS011;21812;55.536;37.664;2024-03-29T09:05:21;14.25;;;8.13;;
35693;SDS011;21812;55.536;37.664;2024-03-29T09:07:50;15.23;;;8.50;;
35693;SDS011;21812;55.536;37.664;2024-03-29T09:10:16;17.77;;;7.95;;
35693;SDS011;21812;55.536;37.664;2024-03-29T09:12:44;10.57;;;7.47;;
35693;SDS011;21812;55.536;37.664;2024-03-29T09:15:09;17.52;;;9.63;;
35693;SDS011;21812;55.536;37.664;2024-03-29T09:17:39;17.15;;;8.02;;
35693;SDS011;21812;55.536;37.664;2024-03-29T09:20:06;12.30;;;8.40;;
35693;SDS011;21812;55.536;37.664;2024-03-29T09:22:32;13.15;;;8.70;;
35693;SDS011;21812;55.536;37.664;2024-03-29T09:24:58;24.23;;;9.23;;
35693;SDS011;21812;55.536;37.664;2024-03-29T09:27:24;15.18;;;8.27;;
35693;SDS011;21812;55.536;37.664;2024-03-29T09:29:50;10.68;;;7.25;;
35693;SDS011;21812;55.536;37.664;2024-03-29T09:32:15;13.57;;;8.23;;
35693;SDS011;21812;55.536;37.664;2024-03-29T09:34:43;15.10;;;9.15;;
35693;SDS011;21812;55.536;37.664;2024-03-29T09:37:09;17.17;;;8.23;;
35693;SDS011;21812;55.536;37.664;2024-03-29T09:39:35;13.73;;;7.80;;
35693;SDS011;21812;55.536;37.664;2024-03-29T09:42:04;13.18;;;7.78;;
35693;SDS011;21812;55.536;37.664;2024-03-29T09:44:33;16.38;;;7.68;;
35693;SDS011;21812;55.536;37.664;2024-03-29T09:47:04;14.45;;;7.63;;
35693;SDS011;21812;55.536;37.664;2024-03-29T09:49:31;13.90;;;7.72;;
35693;SDS011;21812;55.536;37.664;2024-03-29T09:51:58;14.23;;;8.15;;
35693;SDS011;21812;55.536;37.664;2024-03-29T09:54:26;11.10;;;7.45;;
35693;SDS011;21812;55.536;37.664;2024-03-29T09:56:54;14.50;;;7.60;;
35693;SDS011;21812;55.536;37.664;2024-03-29T09:59:22;14.43;;;7.50;;
35693;SDS011;21812;55.536;37.664;2024-03-29T10:01:48;15.45;;;8.73;;
35693;SDS011;21812;55.536;37.664;2024-03-29T10:04:16;14.82;;;9.20;;
35693;SDS011;21812;55.536;37.664;2024-03-29T10:06:48;15.98;;;8.77;;
35693;SDS011;21812;55.536;37.664;2024-03-29T10:09:18;13.32;;;7.88;;
35693;SDS011;21812;55.536;37.664;2024-03-29T10:11:45;14.48;;;8.32;;
35693;SDS011;21812;55.536;37.664;2024-03-29T10:14:11;14.68;;;8.18;;
35693;SDS011;21812;55.536;37.664;2024-03-29T10:16:37;11.52;;;7.30;;
35693;SDS011;21812;55.536;37.664;2024-03-29T10:19:03;15.98;;;9.57;;
35693;SDS011;21812;55.536;37.664;2024-03-29T10:21:29;12.07;;;8.48;;
35693;SDS011;21812;55.536;37.664;2024-03-29T10:23:55;11.57;;;8.20;;
35693;SDS011;21812;55.536;37.664;2024-03-29T10:26:21;19.13;;;9.68;;
35693;SDS011;21812;55.536;37.664;2024-03-29T10:28:47;12.27;;;7.22;;
35693;SDS011;21812;55.536;37.664;2024-03-29T10:31:14;12.52;;;8.77;;
35693;SDS011;21812;55.536;37.664;2024-03-29T10:33:43;17.83;;;9.38;;
35693;SDS011;21812;55.536;37.664;2024-03-29T10:36:10;16.02;;;8.38;;
35693;SDS011;21812;55.536;37.664;2024-03-29T10:38:38;12.23;;;7.85;;
35693;SDS011;21812;55.536;37.664;2024-03-29T10:41:04;15.20;;;9.02;;
35693;SDS011;21812;55.536;37.664;2024-03-29T10:43:32;17.58;;;8.77;;
35693;SDS011;21812;55.536;37.664;2024-03-29T10:46:01;18.55;;;8.85;;
35693;SDS011;21812;55.536;37.664;2024-03-29T10:48:29;20.70;;;8.98;;
35693;SDS011;21812;55.536;37.664;2024-03-29T10:50:57;17.77;;;9.27;;
35693;SDS011;21812;55.536;37.664;2024-03-29T10:53:24;13.15;;;8.68;;
35693;SDS011;21812;55.536;37.664;2024-03-29T10:55:53;12.50;;;8.48;;
35693;SDS011;21812;55.536;37.664;2024-03-29T10:58:21;14.43;;;8.82;;
35693;SDS011;21812;55.536;37.664;2024-03-29T11:00:52;18.90;;;9.82;;
35693;SDS011;21812;55.536;37.664;2024-03-29T11:06:09;14.50;;;9.50;;
35693;SDS011;21812;55.536;37.664;2024-03-29T11:08:38;18.02;;;9.27;;
35693;SDS011;21812;55.536;37.664;2024-03-29T11:11:11;17.40;;;10.00;;
35693;SDS011;21812;55.536;37.664;2024-03-29T11:13:58;12.23;;;8.38;;
35693;SDS011;21812;55.536;37.664;2024-03-29T11:16:28;13.70;;;9.32;;
35693;SDS011;21812;55.536;37.664;2024-03-29T11:18:54;15.82;;;8.88;;
35693;SDS011;21812;55.536;37.664;2024-03-29T11:21:21;10.82;;;8.00;;
35693;SDS011;21812;55.536;37.664;2024-03-29T11:23:50;15.15;;;8.95;;
35693;SDS011;21812;55.536;37.664;2024-03-29T11:26:17;19.23;;;8.45;;
35693;SDS011;21812;55.536;37.664;2024-03-29T11:28:50;14.82;;;9.52;;
35693;SDS011;21812;55.536;37.664;2024-03-29T11:31:17;15.90;;;8.85;;
35693;SDS011;21812;55.536;37.664;2024-03-29T11:33:47;24.75;;;9.57;;
35693;SDS011;21812;55.536;37.664;2024-03-29T11:36:20;17.45;;;9.85;;
35693;SDS011;21812;55.536;37.664;2024-03-29T11:38:53;19.05;;;8.88;;
35693;SDS011;21812;55.536;37.664;2024-03-29T11:41:20;20.52;;;9.38;;
35693;SDS011;21812;55.536;37.664;2024-03-29T11:43:50;14.70;;;9.43;;
35693;SDS011;21812;55.536;37.664;2024-03-29T11:46:16;18.27;;;9.27;;
35693;SDS011;21812;55.536;37.664;2024-03-29T11:48:44;14.15;;;9.23;;
35693;SDS011;21812;55.536;37.664;2024-03-29T11:51:17;16.73;;;9.53;;
35693;SDS011;21812;55.536;37.664;2024-03-29T11:53:47;15.35;;;8.55;;
35693;SDS011;21812;55.536;37.664;2024-03-29T11:56:16;14.18;;;8.95;;
35693;SDS011;21812;55.536;37.664;2024-03-29T11:58:41;19.63;;;10.05;;
35693;SDS011;21812;55.536;37.664;2024-03-29T12:01:07;15.60;;;9.52;;
35693;SDS011;21812;55.536;37.664;2024-03-29T12:03:38;11.88;;;8.93;;
35693;SDS011;21812;55.536;37.664;2024-03-29T12:06:07;13.88;;;8.93;;
35693;SDS011;21812;55.536;37.664;2024-03-29T12:08:34;14.38;;;8.93;;
35693;SDS011;21812;55.536;37.664;2024-03-29T12:11:03;18.20;;;10.02;;
35693;SDS011;21812;55.536;37.664;2024-03-29T12:13:29;19.13;;;10.27;;
35693;SDS011;21812;55.536;37.664;2024-03-29T12:15:57;14.07;;;9.32;;
35693;SDS011;21812;55.536;37.664;2024-03-29T12:18:23;16.20;;;9.82;;
35693;SDS011;21812;55.536;37.664;2024-03-29T12:20:51;13.95;;;10.00;;
35693;SDS011;21812;55.536;37.664;2024-03-29T12:23:18;17.77;;;10.50;;
35693;SDS011;21812;55.536;37.664;2024-03-29T12:25:45;16.63;;;9.55;;
35693;SDS011;21812;55.536;37.664;2024-03-29T12:28:12;17.67;;;10.52;;
35693;SDS011;21812;55.536;37.664;2024-03-29T12:30:43;20.05;;;10.45;;
35693;SDS011;21812;55.536;37.664;2024-03-29T12:33:14;21.02;;;10.13;;
35693;SDS011;21812;55.536;37.664;2024-03-29T12:35:44;16.55;;;9.95;;
35693;SDS011;21812;55.536;37.664;2024-03-29T12:38:15;20.67;;;10.10;;
35693;SDS011;21812;55.536;37.664;2024-03-29T12:40:42;11.98;;;9.02;;
35693;SDS011;21812;55.536;37.664;2024-03-29T12:43:09;15.48;;;8.88;;
35693;SDS011;21812;55.536;37.664;2024-03-29T12:45:39;19.60;;;9.68;;
35693;SDS011;21812;55.536;37.664;2024-03-29T12:48:09;20.40;;;10.35;;
35693;SDS011;21812;55.536;37.664;2024-03-29T12:50:36;19.38;;;9.98;;
35693;SDS011;21812;55.536;37.664;2024-03-29T12:53:05;13.25;;;9.00;;
35693;SDS011;21812;55.536;37.664;2024-03-29T12:55:32;14.82;;;9.95;;
35693;SDS011;21812;55.536;37.664;2024-03-29T12:58:03;19.02;;;10.32;;
35693;SDS011;21812;55.536;37.664;2024-03-29T13:00:33;15.82;;;10.10;;
35693;SDS011;21812;55.536;37.664;2024-03-29T13:02:59;15.20;;;9.13;;
35693;SDS011;21812;55.536;37.664;2024-03-29T13:05:26;16.92;;;10.00;;
35693;SDS011;21812;55.536;37.664;2024-03-29T13:07:53;15.13;;;9.45;;
35693;SDS011;21812;55.536;37.664;2024-03-29T13:10:19;18.83;;;10.10;;
35693;SDS011;21812;55.536;37.664;2024-03-29T13:12:46;16.92;;;10.05;;
35693;SDS011;21812;55.536;37.664;2024-03-29T13:15:16;14.77;;;9.07;;
35693;SDS011;21812;55.536;37.664;2024-03-29T13:17:44;19.95;;;11.00;;
35693;SDS011;21812;55.536;37.664;2024-03-29T13:20:11;19.58;;;9.52;;
35693;SDS011;21812;55.536;37.664;2024-03-29T13:22:38;16.55;;;10.07;;
35693;SDS011;21812;55.536;37.664;2024-03-29T13:25:04;21.27;;;10.63;;
35693;SDS011;21812;55.536;37.664;2024-03-29T13:27:32;20.13;;;12.05;;
35693;SDS011;21812;55.536;37.664;2024-03-29T13:29:58;23.20;;;13.18;;
35693;SDS011;21812;55.536;37.664;2024-03-29T13:32:24;19.77;;;9.80;;
35693;SDS011;21812;55.536;37.664;2024-03-29T13:34:49;19.42;;;11.10;;
35693;SDS011;21812;55.536;37.664;2024-03-29T13:37:16;13.10;;;8.82;;
35693;SDS011;21812;55.536;37.664;2024-03-29T13:39:41;22.23;;;9.07;;
35693;SDS011;21812;55.536;37.664;2024-03-29T13:42:07;21.83;;;10.02;;
35693;SDS011;21812;55.536;37.664;2024-03-29T13:44:33;14.27;;;9.43;;
35693;SDS011;21812;55.536;37.664;2024-03-29T13:46:59;22.80;;;9.93;;
35693;SDS011;21812;55.536;37.664;2024-03-29T13:49:29;15.43;;;9.65;;
35693;SDS011;21812;55.536;37.664;2024-03-29T13:51:57;13.52;;;9.40;;
35693;SDS011;21812;55.536;37.664;2024-03-29T13:54:23;26.15;;;11.98;;
35693;SDS011;21812;55.536;37.664;2024-03-29T13:56:49;23.50;;;12.25;;
35693;SDS011;21812;55.536;37.664;2024-03-29T13:59:15;21.33;;;12.43;;
35693;SDS011;21812;55.536;37.664;2024-03-29T14:01:41;17.85;;;11.70;;
35693;SDS011;21812;55.536;37.664;2024-03-29T14:04:06;20.35;;;12.55;;
35693;SDS011;21812;55.536;37.664;2024-03-29T14:06:32;26.33;;;12.05;;
35693;SDS011;21812;55.536;37.664;2024-03-29T14:08:58;23.90;;;11.35;;
35693;SDS011;21812;55.536;37.664;2024-03-29T14:11:24;20.77;;;10.52;;
35693;SDS011;21812;55.536;37.664;2024-03-29T14:13:49;24.02;;;11.50;;
35693;SDS011;21812;55.536;37.664;2024-03-29T14:16:21;15.88;;;11.52;;
35693;SDS011;21812;55.536;37.664;2024-03-29T14:18:47;18.88;;;11.20;;
35693;SDS011;21812;55.536;37.664;2024-03-29T14:21:13;18.85;;;12.20;;
35693;SDS011;21812;55.536;37.664;2024-03-29T14:23:39;20.60;;;10.90;;
35693;SDS011;21812;55.536;37.664;2024-03-29T14:26:05;16.95;;;10.52;;